createdAt,value
2022-10-26T00:01:14.319Z,14.70
2022-10-26T00:03:44.668Z,14.70
2022-10-26T00:06:14.831Z,14.80
2022-10-26T00:08:43.413Z,14.70
2022-10-26T00:11:12.997Z,14.70
2022-10-26T00:13:43.237Z,14.70
2022-10-26T00:16:13.050Z,14.70
2022-10-26T00:18:41.682Z,14.70
2022-10-26T00:21:11.586Z,14.70
2022-10-26T00:23:40.153Z,14.70
2022-10-26T00:26:09.090Z,14.70
2022-10-26T00:28:37.717Z,14.70
2022-10-26T00:31:10.620Z,14.70
2022-10-26T00:33:38.990Z,14.70
2022-10-26T00:36:09.343Z,14.70
2022-10-26T00:38:37.706Z,14.70
2022-10-26T00:41:06.167Z,14.60
2022-10-26T00:43:40.514Z,14.60
2022-10-26T00:46:14.902Z,14.60
2022-10-26T00:48:47.006Z,14.60
2022-10-26T00:51:21.781Z,14.60
2022-10-26T00:53:50.903Z,14.60
2022-10-26T00:56:19.721Z,14.60
2022-10-26T00:58:48.761Z,14.70
2022-10-26T01:01:18.432Z,14.60
2022-10-26T01:03:47.964Z,14.60
2022-10-26T01:06:17.108Z,14.70
2022-10-26T01:08:45.747Z,14.70
2022-10-26T01:11:14.473Z,14.70
2022-10-26T01:13:45.267Z,14.70
2022-10-26T01:16:27.137Z,14.70
2022-10-26T01:19:07.297Z,14.70
2022-10-26T01:21:47.766Z,14.70
2022-10-26T01:24:32.267Z,14.70
2022-10-26T01:27:13.502Z,14.70
2022-10-26T01:30:17.272Z,14.70
2022-10-26T01:32:55.391Z,14.70
2022-10-26T01:35:29.212Z,14.70
2022-10-26T01:38:03.041Z,14.70
2022-10-26T01:40:35.491Z,14.70
2022-10-26T01:43:08.625Z,14.80
2022-10-26T01:45:41.311Z,14.80
2022-10-26T01:48:13.946Z,14.80
2022-10-26T01:50:44.173Z,14.80
2022-10-26T01:53:14.644Z,14.80
2022-10-26T01:55:49.536Z,14.80
2022-10-26T01:58:59.382Z,14.80
2022-10-26T02:01:42.540Z,14.90
2022-10-26T02:07:03.704Z,14.90
2022-10-26T02:09:40.595Z,14.90
2022-10-26T02:12:16.035Z,14.90
2022-10-26T02:14:50.607Z,14.90
2022-10-26T02:17:24.934Z,14.90
2022-10-26T02:20:00.658Z,14.90
2022-10-26T02:22:32.945Z,15.00
2022-10-26T02:25:06.447Z,15.00
2022-10-26T02:27:39.098Z,14.90
2022-10-26T02:30:09.074Z,14.90
2022-10-26T02:32:40.093Z,14.90
2022-10-26T02:35:10.709Z,15.00
2022-10-26T02:37:39.762Z,15.00
2022-10-26T02:40:13.229Z,15.00
2022-10-26T02:42:45.105Z,15.00
2022-10-26T02:45:14.450Z,15.00
2022-10-26T02:47:42.739Z,15.00
2022-10-26T02:50:12.706Z,15.00
2022-10-26T02:52:50.189Z,15.00
2022-10-26T02:55:23.139Z,15.00
2022-10-26T02:57:53.883Z,15.10
2022-10-26T03:00:22.267Z,15.00
2022-10-26T03:02:55.256Z,15.00
2022-10-26T03:05:26.949Z,15.00
2022-10-26T03:07:56.516Z,15.10
2022-10-26T03:10:24.839Z,15.00
2022-10-26T03:12:53.444Z,15.10
2022-10-26T03:15:21.817Z,15.10
2022-10-26T03:17:50.255Z,15.10
2022-10-26T03:20:19.199Z,15.10
2022-10-26T03:22:50.123Z,15.10
2022-10-26T03:25:18.528Z,15.10
2022-10-26T03:27:47.094Z,15.10
2022-10-26T03:30:15.774Z,15.10
2022-10-26T03:32:44.058Z,15.10
2022-10-26T03:35:15.125Z,15.10
2022-10-26T03:37:43.314Z,15.10
2022-10-26T03:40:13.858Z,15.10
2022-10-26T03:42:42.325Z,15.10
2022-10-26T03:45:11.593Z,15.10
2022-10-26T03:47:45.776Z,15.10
2022-10-26T03:50:16.019Z,15.10
2022-10-26T03:52:44.235Z,15.10
2022-10-26T03:55:13.881Z,15.10
2022-10-26T03:57:43.111Z,15.10
2022-10-26T04:00:12.960Z,15.10
2022-10-26T04:02:41.137Z,15.10
2022-10-26T04:05:10.846Z,15.10
2022-10-26T04:07:39.085Z,15.10
2022-10-26T04:10:08.166Z,15.10
2022-10-26T04:12:39.618Z,15.10
2022-10-26T04:15:08.805Z,15.10
2022-10-26T04:17:37.010Z,15.10
2022-10-26T04:20:06.920Z,15.10
2022-10-26T04:22:35.200Z,15.10
2022-10-26T04:25:03.393Z,15.10
2022-10-26T04:27:31.567Z,15.10
2022-10-26T04:30:01.144Z,15.10
2022-10-26T04:32:29.390Z,15.10
2022-10-26T04:34:57.623Z,15.10
2022-10-26T04:37:25.813Z,15.10
2022-10-26T04:39:54.061Z,15.10
2022-10-26T04:42:22.259Z,15.10
2022-10-26T04:44:50.459Z,15.10
2022-10-26T04:47:20.095Z,15.00
2022-10-26T04:49:48.315Z,15.10
2022-10-26T04:52:16.497Z,15.00
2022-10-26T04:54:44.682Z,15.00
2022-10-26T04:57:12.865Z,15.00
2022-10-26T04:59:41.030Z,15.10
2022-10-26T05:02:09.407Z,15.10
2022-10-26T05:04:39.024Z,15.10
2022-10-26T05:07:07.503Z,15.10
2022-10-26T05:09:35.694Z,15.10
2022-10-26T05:12:04.015Z,15.20
2022-10-26T05:14:32.257Z,15.20
2022-10-26T05:17:00.499Z,15.20
2022-10-26T05:19:28.789Z,15.20
2022-10-26T05:21:58.436Z,15.30
2022-10-26T05:24:26.608Z,15.30
2022-10-26T05:26:54.790Z,15.30
2022-10-26T05:29:22.965Z,15.30
2022-10-26T05:31:51.214Z,15.30
2022-10-26T05:34:19.437Z,15.30
2022-10-26T05:36:47.613Z,15.30
2022-10-26T05:39:17.183Z,15.40
2022-10-26T05:41:45.399Z,15.40
2022-10-26T05:44:13.591Z,15.40
2022-10-26T05:46:41.845Z,15.40
2022-10-26T05:49:10.101Z,15.40
2022-10-26T05:51:39.656Z,15.40
2022-10-26T05:54:11.559Z,15.40
2022-10-26T05:56:43.946Z,15.40
2022-10-26T05:59:13.790Z,15.40
2022-10-26T06:02:00.539Z,15.40
2022-10-26T06:04:38.617Z,15.40
2022-10-26T06:07:13.018Z,15.40
2022-10-26T06:09:42.245Z,15.30
2022-10-26T06:12:16.836Z,15.40
2022-10-26T06:14:48.152Z,15.40
2022-10-26T06:17:41.335Z,15.40
2022-10-26T06:20:29.087Z,15.40
2022-10-26T06:23:10.643Z,15.40
2022-10-26T06:25:47.044Z,15.40
2022-10-26T06:28:28.352Z,15.40
2022-10-26T06:30:57.155Z,15.40
2022-10-26T06:33:30.719Z,15.40
2022-10-26T06:36:11.891Z,15.40
2022-10-26T06:38:44.371Z,15.40
2022-10-26T06:41:14.901Z,15.40
2022-10-26T06:43:45.178Z,15.40
2022-10-26T06:46:21.958Z,15.40
2022-10-26T06:48:57.449Z,15.40
2022-10-26T06:51:29.046Z,15.40
2022-10-26T06:54:01.746Z,15.40
2022-10-26T06:56:30.443Z,15.50
2022-10-26T06:59:07.979Z,15.50
2022-10-26T07:01:36.302Z,15.50
2022-10-26T07:04:04.566Z,15.50
2022-10-26T07:06:34.441Z,15.50
2022-10-26T07:09:05.097Z,15.50
2022-10-26T07:11:33.313Z,15.50
2022-10-26T07:14:02.888Z,15.60
2022-10-26T07:16:31.165Z,15.60
2022-10-26T07:18:59.389Z,15.60
2022-10-26T07:21:27.585Z,15.60
2022-10-26T07:23:57.049Z,15.60
2022-10-26T07:26:25.685Z,15.70
2022-10-26T07:28:53.915Z,15.70
2022-10-26T07:31:23.504Z,15.70
2022-10-26T07:33:51.679Z,15.80
2022-10-26T07:36:19.831Z,15.80
2022-10-26T07:38:48.009Z,15.80
2022-10-26T07:41:16.242Z,15.80
2022-10-26T07:43:45.317Z,15.90
2022-10-26T07:46:13.621Z,15.90
2022-10-26T07:51:12.670Z,16.00
2022-10-26T07:53:40.903Z,16.00
2022-10-26T07:56:09.773Z,16.10
2022-10-26T07:58:38.139Z,16.10
2022-10-26T08:01:12.471Z,16.10
2022-10-26T08:03:40.847Z,16.20
2022-10-26T08:06:10.673Z,16.20
2022-10-26T08:08:40.645Z,16.20
2022-10-26T08:11:11.583Z,16.20
2022-10-26T08:13:39.805Z,16.30
2022-10-26T08:16:08.663Z,16.30
2022-10-26T08:18:36.889Z,16.30
2022-10-26T08:21:11.198Z,16.40
2022-10-26T08:23:41.998Z,16.40
2022-10-26T08:26:11.957Z,16.40
2022-10-26T08:28:41.084Z,16.40
2022-10-26T08:31:09.403Z,16.40
2022-10-26T08:33:38.145Z,16.40
2022-10-26T08:36:07.496Z,16.40
2022-10-26T08:38:35.681Z,16.50
2022-10-26T08:41:10.651Z,16.50
2022-10-26T08:43:42.128Z,16.50
2022-10-26T08:46:15.193Z,16.60
2022-10-26T08:48:48.709Z,16.60
2022-10-26T08:51:19.914Z,16.60
2022-10-26T08:53:54.277Z,16.70
2022-10-26T08:56:26.503Z,16.70
2022-10-26T08:58:58.351Z,16.70
2022-10-26T09:01:26.518Z,16.70
2022-10-26T09:03:54.860Z,16.70
2022-10-26T09:06:29.967Z,16.80
2022-10-26T09:09:06.873Z,16.80
2022-10-26T09:11:53.786Z,16.80
2022-10-26T09:14:31.038Z,16.80
2022-10-26T09:17:09.450Z,16.90
2022-10-26T09:20:03.722Z,16.90
2022-10-26T09:22:37.940Z,16.90
2022-10-26T09:25:17.413Z,17.00
2022-10-26T09:27:50.992Z,17.00
2022-10-26T09:30:21.934Z,17.00
2022-10-26T09:32:53.529Z,17.10
2022-10-26T09:35:24.890Z,17.10
2022-10-26T09:37:56.428Z,17.10
2022-10-26T09:40:28.997Z,17.20
2022-10-26T09:43:01.452Z,17.20
2022-10-26T09:45:33.769Z,17.20
2022-10-26T09:48:08.761Z,17.30
2022-10-26T09:50:40.212Z,17.30
2022-10-26T09:53:08.395Z,17.30
2022-10-26T09:55:42.603Z,17.30
2022-10-26T09:58:17.821Z,17.40
2022-10-26T10:00:46.518Z,17.40
2022-10-26T10:03:22.085Z,17.40
2022-10-26T10:05:52.127Z,17.30
2022-10-26T10:08:23.262Z,17.30
2022-10-26T10:11:13.239Z,17.40
2022-10-26T10:13:44.649Z,17.40
2022-10-26T10:16:15.333Z,17.30
2022-10-26T10:18:44.009Z,17.30
2022-10-26T10:21:14.235Z,17.30
2022-10-26T10:23:51.969Z,17.30
2022-10-26T10:26:20.488Z,17.30
2022-10-26T10:29:00.182Z,17.40
2022-10-26T10:31:33.580Z,17.40
2022-10-26T10:34:01.775Z,17.40
2022-10-26T10:36:31.807Z,17.40
2022-10-26T10:39:00.979Z,17.50
2022-10-26T10:41:33.242Z,17.50
2022-10-26T10:44:09.038Z,17.60
2022-10-26T10:46:38.747Z,17.60
2022-10-26T10:49:18.593Z,17.60
2022-10-26T10:51:48.276Z,17.60
2022-10-26T10:54:26.170Z,17.60
2022-10-26T10:56:56.692Z,17.60
2022-10-26T10:59:47.189Z,17.70
2022-10-26T11:02:34.684Z,17.70
2022-10-26T11:05:24.893Z,17.70
2022-10-26T11:07:59.658Z,17.70
2022-10-26T11:10:31.485Z,17.70
2022-10-26T11:13:00.655Z,17.80
2022-10-26T11:15:34.031Z,17.80
2022-10-26T11:18:07.699Z,17.80
2022-10-26T11:20:40.774Z,17.80
2022-10-26T11:23:14.106Z,17.80
2022-10-26T11:25:49.721Z,17.80
2022-10-26T11:28:24.251Z,17.80
2022-10-26T11:31:01.334Z,17.80
2022-10-26T11:33:35.521Z,17.80
2022-10-26T11:36:07.107Z,17.80
2022-10-26T11:38:56.760Z,17.90
2022-10-26T11:41:30.898Z,17.90
2022-10-26T11:44:07.130Z,17.90
2022-10-26T11:46:41.061Z,17.90
2022-10-26T11:49:16.971Z,18.00
2022-10-26T11:51:50.561Z,18.00
2022-10-26T11:54:25.146Z,18.10
2022-10-26T11:56:56.166Z,18.10
2022-10-26T11:59:30.703Z,18.20
2022-10-26T12:02:07.227Z,18.30
2022-10-26T12:04:38.519Z,18.30
2022-10-26T12:07:14.331Z,18.40
2022-10-26T12:09:45.333Z,18.50
2022-10-26T12:12:21.246Z,18.60
2022-10-26T12:14:57.485Z,18.60
2022-10-26T12:17:32.077Z,18.70
2022-10-26T12:20:07.388Z,18.70
2022-10-26T12:22:40.056Z,18.80
2022-10-26T12:25:20.269Z,18.90
2022-10-26T12:27:54.364Z,18.90
2022-10-26T12:30:31.054Z,19.00
2022-10-26T12:33:03.885Z,19.00
2022-10-26T12:35:40.841Z,19.10
2022-10-26T12:38:48.876Z,19.10
2022-10-26T12:41:25.089Z,19.10
2022-10-26T12:44:06.144Z,19.20
2022-10-26T12:46:41.178Z,19.20
2022-10-26T12:49:59.684Z,19.20
2022-10-26T12:52:49.218Z,19.30
2022-10-26T12:55:49.212Z,19.30
2022-10-26T12:59:04.877Z,19.30
2022-10-26T13:02:13.767Z,19.30
2022-10-26T13:05:25.350Z,19.30
2022-10-26T13:08:04.489Z,19.30
2022-10-26T13:10:32.713Z,19.30
2022-10-26T13:13:02.394Z,19.30
2022-10-26T13:15:32.406Z,19.30
2022-10-26T13:18:04.010Z,19.30
2022-10-26T13:20:33.183Z,19.30
2022-10-26T13:23:03.377Z,19.30
2022-10-26T13:25:32.633Z,19.30
2022-10-26T13:28:04.393Z,19.30
2022-10-26T13:30:41.213Z,19.30
2022-10-26T13:33:15.743Z,19.40
2022-10-26T13:35:45.322Z,19.40
2022-10-26T13:38:19.574Z,19.40
2022-10-26T13:40:48.119Z,19.30
2022-10-26T13:43:22.491Z,19.40
2022-10-26T13:45:56.133Z,19.40
2022-10-26T13:48:36.706Z,19.40
2022-10-26T13:51:12.094Z,19.40
2022-10-26T13:53:46.592Z,19.40
2022-10-26T13:56:23.450Z,19.40
2022-10-26T13:58:56.550Z,19.40
2022-10-26T14:01:27.057Z,19.40
2022-10-26T14:03:55.555Z,19.40
2022-10-26T14:06:28.908Z,19.50
2022-10-26T14:09:01.401Z,19.40
2022-10-26T14:11:35.254Z,19.50
2022-10-26T14:14:04.096Z,19.50
2022-10-26T14:16:35.456Z,19.50
2022-10-26T14:19:04.388Z,19.50
2022-10-26T14:21:32.602Z,19.50
2022-10-26T14:24:07.651Z,19.60
2022-10-26T14:26:41.204Z,19.60
2022-10-26T14:29:18.632Z,19.60
2022-10-26T14:31:47.018Z,19.60
2022-10-26T14:34:15.370Z,19.60
2022-10-26T14:36:47.226Z,19.70
2022-10-26T14:39:20.871Z,19.70
2022-10-26T14:41:50.648Z,19.70
2022-10-26T14:44:23.230Z,19.80
2022-10-26T14:46:51.771Z,19.80
2022-10-26T14:49:22.703Z,19.80
2022-10-26T14:51:57.186Z,19.80
2022-10-26T14:54:28.744Z,19.70
2022-10-26T14:56:57.490Z,19.80
2022-10-26T14:59:29.032Z,19.70
2022-10-26T15:01:59.632Z,19.70
2022-10-26T15:04:35.062Z,19.70
2022-10-26T15:07:10.154Z,19.70
2022-10-26T15:09:44.827Z,19.70
2022-10-26T15:12:28.501Z,19.60
2022-10-26T15:14:57.560Z,19.60
2022-10-26T15:17:32.037Z,19.60
2022-10-26T15:20:05.180Z,19.60
2022-10-26T15:22:33.983Z,19.60
2022-10-26T15:25:05.657Z,19.60
2022-10-26T15:27:34.920Z,19.60
2022-10-26T15:30:26.763Z,19.50
2022-10-26T15:32:56.262Z,19.50
2022-10-26T15:35:32.351Z,19.50
2022-10-26T15:38:02.160Z,19.40
2022-10-26T15:40:33.094Z,19.40
2022-10-26T15:43:02.492Z,19.40
2022-10-26T15:45:33.160Z,19.30
2022-10-26T15:48:17.675Z,19.30
2022-10-26T15:50:45.855Z,19.30
2022-10-26T15:53:19.202Z,19.30
2022-10-26T15:55:49.090Z,19.20
2022-10-26T15:58:17.737Z,19.20
2022-10-26T16:00:46.021Z,19.20
2022-10-26T16:03:17.087Z,19.10
2022-10-26T16:05:45.549Z,19.10
2022-10-26T16:08:17.974Z,19.10
2022-10-26T16:10:48.770Z,19.00
2022-10-26T16:13:17.149Z,19.00
2022-10-26T16:15:46.070Z,19.00
2022-10-26T16:18:14.390Z,19.00
2022-10-26T16:20:45.855Z,18.90
2022-10-26T16:23:14.189Z,18.90
2022-10-26T16:25:44.513Z,18.90
2022-10-26T16:28:16.281Z,18.90
2022-10-26T16:30:45.240Z,18.80
2022-10-26T16:33:13.786Z,18.80
2022-10-26T16:35:42.087Z,18.70
2022-10-26T16:38:10.288Z,18.70
2022-10-26T16:40:38.669Z,18.70
2022-10-26T16:43:06.848Z,18.70
2022-10-26T16:45:36.411Z,18.60
2022-10-26T16:48:07.002Z,18.60
2022-10-26T16:50:36.440Z,18.60
2022-10-26T16:53:05.188Z,18.50
2022-10-26T16:55:33.609Z,18.50
2022-10-26T16:58:01.808Z,18.50
2022-10-26T17:00:30.017Z,18.40
2022-10-26T17:03:01.728Z,18.40
2022-10-26T17:05:30.127Z,18.40
2022-10-26T17:07:58.306Z,18.30
2022-10-26T17:10:27.970Z,18.30
2022-10-26T17:12:57.940Z,18.30
2022-10-26T17:15:29.012Z,18.30
2022-10-26T17:17:57.649Z,18.20
2022-10-26T17:20:27.329Z,18.20
2022-10-26T17:22:57.406Z,18.20
2022-10-26T17:25:25.655Z,18.10
2022-10-26T17:27:53.837Z,18.10
2022-10-26T17:30:21.995Z,18.10
2022-10-26T17:32:50.293Z,18.00
2022-10-26T17:35:19.987Z,18.00
2022-10-26T17:37:49.857Z,17.90
2022-10-26T17:40:18.402Z,17.90
2022-10-26T17:42:46.699Z,17.80
2022-10-26T17:45:14.875Z,17.80
2022-10-26T17:47:43.099Z,17.80
2022-10-26T17:50:11.381Z,17.80
2022-10-26T17:52:39.574Z,17.70
2022-10-26T17:55:09.884Z,17.70
2022-10-26T17:57:38.062Z,17.60
2022-10-26T18:00:07.210Z,17.60
2022-10-26T18:02:37.584Z,17.60
2022-10-26T18:05:07.603Z,17.50
2022-10-26T18:07:36.413Z,17.50
2022-10-26T18:10:14.012Z,17.40
2022-10-26T18:12:54.570Z,17.50
2022-10-26T18:15:23.924Z,17.40
2022-10-26T18:17:56.743Z,17.40
2022-10-26T18:20:26.658Z,17.40
2022-10-26T18:22:54.856Z,17.40
2022-10-26T18:25:23.046Z,17.30
2022-10-26T18:27:51.247Z,17.30
2022-10-26T18:30:20.928Z,17.30
2022-10-26T18:32:50.887Z,17.30
2022-10-26T18:35:19.849Z,17.30
2022-10-26T18:37:48.321Z,17.30
2022-10-26T18:40:16.921Z,17.20
2022-10-26T18:42:45.106Z,17.20
2022-10-26T18:45:13.292Z,17.20
2022-10-26T18:47:42.853Z,17.20
2022-10-26T18:50:11.314Z,17.20
2022-10-26T18:52:39.463Z,17.20
2022-10-26T18:55:08.843Z,17.10
2022-10-26T18:57:37.045Z,17.10
2022-10-26T19:00:05.887Z,17.10
2022-10-26T19:02:34.064Z,17.10
2022-10-26T19:05:03.643Z,17.10
2022-10-26T19:07:31.835Z,17.10
2022-10-26T19:09:59.992Z,17.10
2022-10-26T19:12:28.227Z,17.00
2022-10-26T19:14:56.401Z,17.00
2022-10-26T19:17:24.640Z,16.90
2022-10-26T19:19:52.806Z,16.90
2022-10-26T19:22:22.369Z,16.90
2022-10-26T19:24:50.530Z,16.80
2022-10-26T19:27:18.776Z,16.80
2022-10-26T19:29:47.047Z,16.80
2022-10-26T19:32:15.525Z,16.80
2022-10-26T19:34:43.746Z,16.70
2022-10-26T19:37:11.905Z,16.70
2022-10-26T19:39:41.828Z,16.70
2022-10-26T19:42:10.018Z,16.70
2022-10-26T19:44:38.199Z,16.60
2022-10-26T19:47:07.727Z,16.60
2022-10-26T19:49:35.904Z,16.60
2022-10-26T19:52:04.099Z,16.60
2022-10-26T19:54:32.267Z,16.60
2022-10-26T19:57:01.830Z,16.50
2022-10-26T19:59:29.990Z,16.50
2022-10-26T20:02:00.374Z,16.50
2022-10-26T20:04:28.590Z,16.50
2022-10-26T20:06:56.784Z,16.50
2022-10-26T20:09:25.020Z,16.50
2022-10-26T20:11:53.171Z,16.40
2022-10-26T20:14:22.751Z,16.40
2022-10-26T20:16:50.926Z,16.40
2022-10-26T20:19:19.112Z,16.40
2022-10-26T20:21:47.654Z,16.40
2022-10-26T20:24:15.841Z,16.40
2022-10-26T20:26:44.003Z,16.40
2022-10-26T20:29:12.202Z,16.30
2022-10-26T20:31:41.782Z,16.30
2022-10-26T20:34:10.028Z,16.30
2022-10-26T20:36:38.194Z,16.30
2022-10-26T20:39:06.974Z,16.30
2022-10-26T20:41:41.553Z,16.30
2022-10-26T20:44:17.966Z,16.30
2022-10-26T20:46:48.350Z,16.30
2022-10-26T20:49:17.030Z,16.50
2022-10-26T20:52:15.296Z,16.70
2022-10-26T20:54:44.005Z,17.00
2022-10-26T20:57:23.694Z,17.30
2022-10-26T20:59:56.381Z,17.40
2022-10-26T21:02:27.786Z,17.50
2022-10-26T21:04:55.958Z,17.40
2022-10-26T21:07:24.173Z,17.40
2022-10-26T21:09:52.416Z,17.30
2022-10-26T21:12:20.711Z,17.20
2022-10-26T21:14:48.885Z,17.10
2022-10-26T21:17:17.209Z,17.00
2022-10-26T21:19:46.761Z,16.90
2022-10-26T21:22:15.780Z,16.80
2022-10-26T21:24:43.953Z,16.70
2022-10-26T21:27:12.110Z,16.60
2022-10-26T21:29:40.450Z,16.50
2022-10-26T21:32:08.678Z,16.40
2022-10-26T21:34:36.821Z,16.30
2022-10-26T21:37:06.397Z,16.30
2022-10-26T21:39:34.572Z,16.20
2022-10-26T21:42:02.990Z,16.10
2022-10-26T21:44:40.849Z,16.10
2022-10-26T21:47:10.137Z,16.00
2022-10-26T21:49:38.438Z,15.90
2022-10-26T21:52:08.866Z,15.90
2022-10-26T21:54:37.185Z,15.80
2022-10-26T21:57:05.571Z,15.80
2022-10-26T21:59:33.815Z,15.70
2022-10-26T22:02:02.159Z,15.70
2022-10-26T22:04:30.746Z,15.70
2022-10-26T22:06:58.908Z,15.60
2022-10-26T22:09:28.482Z,15.60
2022-10-26T22:11:56.658Z,15.50
2022-10-26T22:14:24.934Z,15.50
2022-10-26T22:16:53.105Z,15.50
2022-10-26T22:19:21.297Z,15.40
2022-10-26T22:21:49.472Z,15.40
2022-10-26T22:24:17.729Z,15.40
2022-10-26T22:26:47.309Z,15.40
2022-10-26T22:29:15.450Z,15.40
2022-10-26T22:31:43.613Z,15.30
2022-10-26T22:34:16.137Z,15.30
2022-10-26T22:36:44.775Z,15.30
2022-10-26T22:39:12.946Z,15.30
2022-10-26T22:41:41.238Z,15.30
2022-10-26T22:44:10.983Z,15.30
2022-10-26T22:46:39.231Z,15.20
2022-10-26T22:49:07.428Z,15.20
2022-10-26T22:51:36.614Z,15.20
2022-10-26T22:54:05.960Z,15.20
2022-10-26T22:56:35.998Z,15.10
2022-10-26T22:59:05.212Z,15.10
2022-10-26T23:01:38.355Z,15.10
2022-10-26T23:04:06.841Z,15.10
2022-10-26T23:06:35.043Z,15.00
2022-10-26T23:09:03.293Z,15.00
2022-10-26T23:11:31.631Z,15.00
2022-10-26T23:14:01.401Z,15.00
2022-10-26T23:16:31.109Z,14.90
2022-10-26T23:19:00.977Z,14.90
2022-10-26T23:21:30.007Z,14.90
2022-10-26T23:23:58.537Z,14.90
2022-10-26T23:26:26.812Z,14.90
2022-10-26T23:28:54.986Z,14.90
2022-10-26T23:31:26.584Z,14.90
2022-10-26T23:33:55.806Z,14.90
2022-10-26T23:36:25.766Z,14.90
2022-10-26T23:38:53.969Z,14.80
2022-10-26T23:41:22.158Z,14.90
2022-10-26T23:43:50.311Z,14.80
2022-10-26T23:46:18.547Z,14.80
2022-10-26T23:48:46.801Z,14.80
2022-10-26T23:51:14.961Z,14.80
2022-10-26T23:53:44.490Z,14.80
2022-10-26T23:56:12.636Z,14.80
2022-10-26T23:58:40.813Z,14.80
